Las horas y fechas están en horario UTC.
Sumar 1 hora en el horario de invierno y 2 horas en el de verano.

Informes METAR cercanos

 

LEZL - Sevilla (civ/Mil, Spain
Distance from station: NNE 24km
Actualización: 24/09/2021 05:00
Muy nuboso
Muy nuboso
 Viento del varies
Viento: varies 2 km/h
Temperatura: 21°C
Rocío: 20°C
Humedad: 94%
Barómetro: 1012 hPa
Clouds: Muy nuboso
Visibility: 10 km
Cloud details: Parcialmente nuboso 305 m
Muy nuboso 488 m
Muy nuboso 762 m
2021/09/24 03:00 LEZL 240300Z AUTO VRB01KT 9999 SCT010 BKN016 BKN025 21/20 Q1012
LEMO - Moron (sp-Usafb), Spain
Distance from station: E 38km
Actualización: 24/09/2021 05:00
Muy nuboso
Muy nuboso
 Viento del OSO
Viento: OSO 11 km/h
Temperatura: 21°C
Rocío: 19°C
Humedad: 88%
Barómetro: 1012 hPa
Clouds: Muy nuboso
Visibility: 10 km
Cloud details: Few Clouds 427 m
Muy nuboso 549 m
2021/09/24 03:00 LEMO 240300Z 25006KT 220V280 9999 FEW014 BKN018 21/19 Q1012 NOSIG
LEJR - Jerez (civ/Mil), Spain
Distance from station: S 53km
Actualización: 24/09/2021 05:00
Muy nuboso
Muy nuboso
 Viento del SO
Viento: SO 13 km/h
Temperatura: 21°C
Rocío: 20°C
Humedad: 94%
Barómetro: 1012 hPa
Clouds: Muy nuboso
Visibility: 10 km
Cloud details: Muy nuboso 914 m
2021/09/24 03:00 LEJR 240300Z AUTO 22007KT 9999 BKN030 21/20 Q1012
 
LERT - Rota Naval Stati, Spain
Distance from station: SSO 71km
Actualización: 24/09/2021 05:00
Parcialmente nuboso
Parcialmente nuboso
 Viento del O
Viento: O 11 km/h
Temperatura: 21°C
Rocío: 19°C
Humedad: 88%
Barómetro: 1012 hPa
Clouds: Parcialmente nuboso
Visibility: 10 km
Cloud details: Few Clouds 610 m
Parcialmente nuboso 914 m
2021/09/24 03:00 LERT 240300Z 26006KT 9999 FEW020 SCT030 21/19 Q1012 NOSIG
LEBA - Cordoba Airport, Spain
Distance from station: ENE 128km
Actualización: 24/09/2021 05:00
Despejado
Despejado
 Viento del SSE
Viento: SSE 4 km/h
Temperatura: 20°C
Rocío: 17°C
Humedad: 83%
Barómetro: 1012 hPa
Resumen: Despejado
Visibility: greater than 10 km
2021/09/24 03:00 LEBA 240300Z AUTO 16002KT CAVOK 20/17 Q1012
LXGB - Gibraltar (civ/M, Gibraltar
Distance from station: SSE 137km
Actualización: 24/09/2021 04:50
Haze, Muy nuboso
Haze, Muy nuboso
 Viento del OSO
Viento: OSO 7 km/h
Temperatura: 21°C
Rocío: 20°C
Humedad: 94%
Barómetro: 1012 hPa
Resumen: Haze
Clouds: Muy nuboso
Visibility: 4 km
Cloud details: Muy nuboso 244 m
2021/09/24 02:50 LXGB 240250Z AUTO 25004KT 4400 HZ BKN008/// 21/20 Q1012
 
LEMG - Malaga (civ/Mil), Spain
Distance from station: ESE 150km
Actualización: 24/09/2021 05:00
Muy nuboso
Muy nuboso
 Viento del SSE
Viento: SSE 9 km/h
Temperatura: 23°C
Rocío: 21°C
Humedad: 89%
Barómetro: 1013 hPa
Clouds: Muy nuboso
Visibility: 10 km
Cloud details: Parcialmente nuboso 549 m
Muy nuboso 1219 m
2021/09/24 03:00 LEMG 240300Z 15005KT 110V190 9999 SCT018 BKN040 23/21 Q1013 NOSIG
GMTT - Tangier/Boukhalf, Morocco
Distance from station: S 169km
Actualización: 24/09/2021 05:00
Muy nuboso
Muy nuboso
 Viento del NNE
Viento: NNE 4 km/h
Temperatura: 21°C
Rocío: 20°C
Humedad: 94%
Barómetro: 1012 hPa
Clouds: Muy nuboso
Visibility: 6 km
Cloud details: Parcialmente nuboso 396 m
Muy nuboso 6096 m
2021/09/24 03:00 GMTT 240300Z 02002KT 6000 SCT013 BKN200 21/20 Q1012 NOSIG
LPFR - Faro, Portugal
Distance from station: O 172km
Actualización: 24/09/2021 05:00
Parcialmente nuboso
Parcialmente nuboso
 Viento del SO
Viento: SO 11 km/h
Temperatura: 19°C
Rocío: 18°C
Humedad: 94%
Barómetro: 1012 hPa
Clouds: Parcialmente nuboso
Visibility: 10 km
Cloud details: Parcialmente nuboso 366 m
2021/09/24 03:00 LPFR 240300Z 22006KT 9999 SCT012 19/18 Q1012
 
LPBJ - Beja (por/Ger-Af, Portugal
Distance from station: ONO 192km
Actualización: 24/09/2021 05:00
Nearby fog, Few clouds
Nearby fog, Few clouds
 Viento del E
Viento: E 6 km/h
Temperatura: 14°C
Rocío: 13°C
Humedad: 94%
Barómetro: 1012 hPa
Resumen: Nearby Fog
Clouds: Few Clouds
Visibility: 10 km
Cloud details: Few Clouds 366 m
2021/09/24 03:00 LPBJ 240300Z 10003KT 9999 VCFG FEW012 14/13 Q1012
LEBZ - Talavera Ab/Bada, Spain
Distance from station: NNO 194km
Actualización: 23/09/2021 21:00
NOT Current
Despejado
Despejado
 Viento del E
Viento: E 11 km/h
Temperatura: 19°C
Rocío: 17°C
Humedad: 88%
Barómetro: 1012 hPa
Resumen: Despejado
Visibility: greater than 10 km
2021/09/23 19:00 LEBZ 231900Z 08006KT CAVOK 19/17 Q1012
LEMD - Madrid/Barajas, Spain
Distance from station: NE 415km
Actualización: 24/09/2021 05:00
Muy nuboso
Muy nuboso
 Viento del NNO
Viento: NNO 6 km/h
Temperatura: 17°C
Rocío: 15°C
Humedad: 88%
Barómetro: 1017 hPa
Clouds: Muy nuboso
Visibility: 10 km
Cloud details: Parcialmente nuboso 853 m
Muy nuboso 1676 m
2021/09/24 03:00 LEMD 240300Z 34003KT 9999 SCT028 BKN055 17/15 Q1017 NOSIG